sensor_id;sensor_type;location;lat;lon;timestamp;temperature;humidity
67870;DHT22;54673;52.262;6.830;2023-02-15T00:00:15;16.00;51.60
67870;DHT22;54673;52.262;6.830;2023-02-15T00:02:41;15.90;51.70
67870;DHT22;54673;52.262;6.830;2023-02-15T00:05:07;15.90;51.70
67870;DHT22;54673;52.262;6.830;2023-02-15T00:07:33;15.90;51.60
67870;DHT22;54673;52.262;6.830;2023-02-15T00:09:58;15.90;51.60
67870;DHT22;54673;52.262;6.830;2023-02-15T00:12:24;15.90;51.60
67870;DHT22;54673;52.262;6.830;2023-02-15T00:14:49;15.90;51.60
67870;DHT22;54673;52.262;6.830;2023-02-15T00:17:15;15.80;51.60
67870;DHT22;54673;52.262;6.830;2023-02-15T00:19:40;15.80;51.60
67870;DHT22;54673;52.262;6.830;2023-02-15T00:22:06;15.70;52.40
67870;DHT22;54673;52.262;6.830;2023-02-15T00:24:32;15.80;51.70
67870;DHT22;54673;52.262;6.830;2023-02-15T00:26:58;15.70;51.40
67870;DHT22;54673;52.262;6.830;2023-02-15T00:29:24;15.70;51.70
67870;DHT22;54673;52.262;6.830;2023-02-15T00:31:50;15.70;51.70
67870;DHT22;54673;52.262;6.830;2023-02-15T00:34:18;15.70;51.70
67870;DHT22;54673;52.262;6.830;2023-02-15T00:36:44;15.70;51.70
67870;DHT22;54673;52.262;6.830;2023-02-15T00:39:11;15.70;51.50
67870;DHT22;54673;52.262;6.830;2023-02-15T00:41:37;15.70;51.60
67870;DHT22;54673;52.262;6.830;2023-02-15T00:44:03;15.70;51.70
67870;DHT22;54673;52.262;6.830;2023-02-15T00:46:29;15.60;51.60
67870;DHT22;54673;52.262;6.830;2023-02-15T00:48:55;15.70;51.60
67870;DHT22;54673;52.262;6.830;2023-02-15T00:51:20;15.60;51.50
67870;DHT22;54673;52.262;6.830;2023-02-15T00:53:46;15.60;51.60
67870;DHT22;54673;52.262;6.830;2023-02-15T00:56:12;15.60;51.60
67870;DHT22;54673;52.262;6.830;2023-02-15T00:58:38;15.50;51.60
67870;DHT22;54673;52.262;6.830;2023-02-15T01:01:09;15.50;51.60
67870;DHT22;54673;52.262;6.830;2023-02-15T01:03:35;15.50;51.60
67870;DHT22;54673;52.262;6.830;2023-02-15T01:06:01;15.50;51.60
67870;DHT22;54673;52.262;6.830;2023-02-15T01:08:27;15.50;51.50
67870;DHT22;54673;52.262;6.830;2023-02-15T01:10:53;15.50;51.50
67870;DHT22;54673;52.262;6.830;2023-02-15T01:13:18;15.50;51.60
67870;DHT22;54673;52.262;6.830;2023-02-15T01:15:45;15.40;51.20
67870;DHT22;54673;52.262;6.830;2023-02-15T01:18:11;15.40;51.50
67870;DHT22;54673;52.262;6.830;2023-02-15T01:20:39;15.40;51.40
67870;DHT22;54673;52.262;6.830;2023-02-15T01:23:07;15.40;51.50
67870;DHT22;54673;52.262;6.830;2023-02-15T01:25:34;14.90;51.30
67870;DHT22;54673;52.262;6.830;2023-02-15T01:28:00;15.40;51.50
67870;DHT22;54673;52.262;6.830;2023-02-15T01:30:26;15.30;51.50
67870;DHT22;54673;52.262;6.830;2023-02-15T01:32:52;15.30;51.40
67870;DHT22;54673;52.262;6.830;2023-02-15T01:35:18;15.30;51.40
67870;DHT22;54673;52.262;6.830;2023-02-15T01:37:43;15.30;51.30
67870;DHT22;54673;52.262;6.830;2023-02-15T01:40:13;15.30;51.40
67870;DHT22;54673;52.262;6.830;2023-02-15T01:42:39;15.30;51.40
67870;DHT22;54673;52.262;6.830;2023-02-15T01:47:54;15.20;51.40
67870;DHT22;54673;52.262;6.830;2023-02-15T01:50:30;15.20;51.30
67870;DHT22;54673;52.262;6.830;2023-02-15T01:53:03;15.20;51.30
67870;DHT22;54673;52.262;6.830;2023-02-15T01:55:36;15.20;51.30
67870;DHT22;54673;52.262;6.830;2023-02-15T01:58:04;15.20;51.20
67870;DHT22;54673;52.262;6.830;2023-02-15T02:00:31;15.10;51.20
67870;DHT22;54673;52.262;6.830;2023-02-15T02:02:58;15.20;51.30
67870;DHT22;54673;52.262;6.830;2023-02-15T02:05:24;15.20;51.40
67870;DHT22;54673;52.262;6.830;2023-02-15T02:07:51;15.10;51.10
67870;DHT22;54673;52.262;6.830;2023-02-15T02:10:20;15.10;51.30
67870;DHT22;54673;52.262;6.830;2023-02-15T02:12:50;15.10;51.20
67870;DHT22;54673;52.262;6.830;2023-02-15T02:15:17;15.10;51.20
67870;DHT22;54673;52.262;6.830;2023-02-15T02:17:54;15.10;51.30
67870;DHT22;54673;52.262;6.830;2023-02-15T02:23:36;15.10;51.30
67870;DHT22;54673;52.262;6.830;2023-02-15T02:32:28;15.00;51.20
67870;DHT22;54673;52.262;6.830;2023-02-15T02:35:26;15.00;51.30
67870;DHT22;54673;52.262;6.830;2023-02-15T02:38:00;15.00;51.30
67870;DHT22;54673;52.262;6.830;2023-02-15T02:43:05;14.90;51.20
67870;DHT22;54673;52.262;6.830;2023-02-15T02:45:40;15.00;51.20
67870;DHT22;54673;52.262;6.830;2023-02-15T02:48:12;14.90;51.20
67870;DHT22;54673;52.262;6.830;2023-02-15T02:50:39;14.90;51.10
67870;DHT22;54673;52.262;6.830;2023-02-15T02:53:05;14.90;51.10
67870;DHT22;54673;52.262;6.830;2023-02-15T03:00:55;14.90;51.00
67870;DHT22;54673;52.262;6.830;2023-02-15T03:03:32;14.90;50.90
67870;DHT22;54673;52.262;6.830;2023-02-15T03:06:04;14.80;51.00
67870;DHT22;54673;52.262;6.830;2023-02-15T03:08:40;14.80;50.90
67870;DHT22;54673;52.262;6.830;2023-02-15T03:11:07;14.90;51.00
67870;DHT22;54673;52.262;6.830;2023-02-15T03:13:33;14.80;50.90
67870;DHT22;54673;52.262;6.830;2023-02-15T03:16:00;14.80;51.00
67870;DHT22;54673;52.262;6.830;2023-02-15T03:18:48;14.80;51.10
67870;DHT22;54673;52.262;6.830;2023-02-15T03:21:26;14.90;50.90
67870;DHT22;54673;52.262;6.830;2023-02-15T03:23:56;14.80;51.00
67870;DHT22;54673;52.262;6.830;2023-02-15T03:26:24;14.80;50.90
67870;DHT22;54673;52.262;6.830;2023-02-15T03:28:53;14.80;50.90
67870;DHT22;54673;52.262;6.830;2023-02-15T03:31:22;14.80;51.00
67870;DHT22;54673;52.262;6.830;2023-02-15T03:34:01;14.70;51.00
67870;DHT22;54673;52.262;6.830;2023-02-15T03:36:41;14.70;50.90
67870;DHT22;54673;52.262;6.830;2023-02-15T03:39:33;14.70;50.90
67870;DHT22;54673;52.262;6.830;2023-02-15T03:42:25;14.70;50.90
67870;DHT22;54673;52.262;6.830;2023-02-15T03:45:03;14.70;50.90
67870;DHT22;54673;52.262;6.830;2023-02-15T03:47:33;14.70;50.80
67870;DHT22;54673;52.262;6.830;2023-02-15T03:50:22;14.70;50.80
67870;DHT22;54673;52.262;6.830;2023-02-15T03:53:12;14.70;50.90
67870;DHT22;54673;52.262;6.830;2023-02-15T03:55:39;14.60;50.80
67870;DHT22;54673;52.262;6.830;2023-02-15T03:58:05;14.70;50.80
67870;DHT22;54673;52.262;6.830;2023-02-15T04:01:00;14.60;50.80
67870;DHT22;54673;52.262;6.830;2023-02-15T04:04:12;14.60;50.80
67870;DHT22;54673;52.262;6.830;2023-02-15T04:06:36;14.60;50.80
67870;DHT22;54673;52.262;6.830;2023-02-15T04:09:02;14.60;50.80
67870;DHT22;54673;52.262;6.830;2023-02-15T04:11:46;14.60;50.80
67870;DHT22;54673;52.262;6.830;2023-02-15T04:14:11;14.60;50.80
67870;DHT22;54673;52.262;6.830;2023-02-15T04:16:55;14.60;50.80
67870;DHT22;54673;52.262;6.830;2023-02-15T04:19:21;14.60;50.90
67870;DHT22;54673;52.262;6.830;2023-02-15T04:22:05;14.50;50.80
67870;DHT22;54673;52.262;6.830;2023-02-15T04:24:49;14.60;50.80
67870;DHT22;54673;52.262;6.830;2023-02-15T04:27:33;14.50;50.70
67870;DHT22;54673;52.262;6.830;2023-02-15T04:29:59;14.50;50.70
67870;DHT22;54673;52.262;6.830;2023-02-15T04:32:24;14.50;50.70
67870;DHT22;54673;52.262;6.830;2023-02-15T04:34:50;14.50;50.70
67870;DHT22;54673;52.262;6.830;2023-02-15T04:37:15;14.50;50.70
67870;DHT22;54673;52.262;6.830;2023-02-15T04:39:41;14.50;50.70
67870;DHT22;54673;52.262;6.830;2023-02-15T04:42:06;14.50;50.70
67870;DHT22;54673;52.262;6.830;2023-02-15T04:44:32;14.50;50.90
67870;DHT22;54673;52.262;6.830;2023-02-15T04:46:57;14.50;50.90
67870;DHT22;54673;52.262;6.830;2023-02-15T04:49:23;14.50;50.90
67870;DHT22;54673;52.262;6.830;2023-02-15T04:51:48;14.50;50.90
67870;DHT22;54673;52.262;6.830;2023-02-15T04:54:14;14.40;50.80
67870;DHT22;54673;52.262;6.830;2023-02-15T04:56:39;14.40;50.70
67870;DHT22;54673;52.262;6.830;2023-02-15T04:59:05;14.40;50.70
67870;DHT22;54673;52.262;6.830;2023-02-15T05:01:31;14.40;50.70
67870;DHT22;54673;52.262;6.830;2023-02-15T05:03:57;14.40;50.70
67870;DHT22;54673;52.262;6.830;2023-02-15T05:06:22;14.40;50.70
67870;DHT22;54673;52.262;6.830;2023-02-15T05:08:48;14.40;50.70
67870;DHT22;54673;52.262;6.830;2023-02-15T05:11:14;14.40;50.70
67870;DHT22;54673;52.262;6.830;2023-02-15T05:13:39;14.40;50.70
67870;DHT22;54673;52.262;6.830;2023-02-15T05:16:05;14.40;50.60
67870;DHT22;54673;52.262;6.830;2023-02-15T05:18:30;14.40;50.70
67870;DHT22;54673;52.262;6.830;2023-02-15T05:20:56;14.40;50.70
67870;DHT22;54673;52.262;6.830;2023-02-15T05:23:21;14.30;50.70
67870;DHT22;54673;52.262;6.830;2023-02-15T05:25:48;14.40;50.70
67870;DHT22;54673;52.262;6.830;2023-02-15T05:28:33;14.40;50.70
67870;DHT22;54673;52.262;6.830;2023-02-15T05:31:04;14.30;50.60
67870;DHT22;54673;52.262;6.830;2023-02-15T05:33:30;14.30;50.60
67870;DHT22;54673;52.262;6.830;2023-02-15T05:35:56;14.30;50.70
67870;DHT22;54673;52.262;6.830;2023-02-15T05:38:22;14.30;50.60
67870;DHT22;54673;52.262;6.830;2023-02-15T05:40:47;14.30;50.60
67870;DHT22;54673;52.262;6.830;2023-02-15T05:43:13;14.30;50.60
67870;DHT22;54673;52.262;6.830;2023-02-15T05:45:38;14.30;50.60
67870;DHT22;54673;52.262;6.830;2023-02-15T05:48:04;14.30;50.70
67870;DHT22;54673;52.262;6.830;2023-02-15T05:50:30;14.30;50.70
67870;DHT22;54673;52.262;6.830;2023-02-15T05:52:56;14.30;50.60
67870;DHT22;54673;52.262;6.830;2023-02-15T05:55:21;14.30;50.70
67870;DHT22;54673;52.262;6.830;2023-02-15T05:57:48;14.30;50.60
67870;DHT22;54673;52.262;6.830;2023-02-15T06:00:14;14.30;50.60
67870;DHT22;54673;52.262;6.830;2023-02-15T06:02:40;14.20;50.60
67870;DHT22;54673;52.262;6.830;2023-02-15T06:05:06;14.20;50.60
67870;DHT22;54673;52.262;6.830;2023-02-15T06:07:32;14.20;50.50
67870;DHT22;54673;52.262;6.830;2023-02-15T06:09:57;14.20;50.50
67870;DHT22;54673;52.262;6.830;2023-02-15T06:12:23;14.20;50.60
67870;DHT22;54673;52.262;6.830;2023-02-15T06:14:49;14.20;50.60
67870;DHT22;54673;52.262;6.830;2023-02-15T06:17:15;14.20;50.50
67870;DHT22;54673;52.262;6.830;2023-02-15T06:19:42;14.20;50.60
67870;DHT22;54673;52.262;6.830;2023-02-15T06:22:08;14.20;50.50
67870;DHT22;54673;52.262;6.830;2023-02-15T06:24:33;14.20;50.60
67870;DHT22;54673;52.262;6.830;2023-02-15T06:26:59;15.00;51.00
67870;DHT22;54673;52.262;6.830;2023-02-15T06:29:25;13.10;50.00
67870;DHT22;54673;52.262;6.830;2023-02-15T06:31:50;14.10;50.50
67870;DHT22;54673;52.262;6.830;2023-02-15T06:34:16;14.20;50.50
67870;DHT22;54673;52.262;6.830;2023-02-15T06:36:41;14.20;50.60
67870;DHT22;54673;52.262;6.830;2023-02-15T06:39:07;14.10;50.50
67870;DHT22;54673;52.262;6.830;2023-02-15T06:41:32;14.10;50.50
67870;DHT22;54673;52.262;6.830;2023-02-15T06:43:58;14.10;50.60
67870;DHT22;54673;52.262;6.830;2023-02-15T06:46:24;14.10;50.60
67870;DHT22;54673;52.262;6.830;2023-02-15T06:48:50;14.10;50.60
67870;DHT22;54673;52.262;6.830;2023-02-15T06:51:15;14.10;50.50
67870;DHT22;54673;52.262;6.830;2023-02-15T06:53:41;14.10;50.50
67870;DHT22;54673;52.262;6.830;2023-02-15T06:56:10;14.10;50.50
67870;DHT22;54673;52.262;6.830;2023-02-15T06:58:36;14.10;50.50
67870;DHT22;54673;52.262;6.830;2023-02-15T07:01:02;14.10;50.50
67870;DHT22;54673;52.262;6.830;2023-02-15T07:03:28;14.10;50.60
67870;DHT22;54673;52.262;6.830;2023-02-15T07:05:55;14.10;50.50
67870;DHT22;54673;52.262;6.830;2023-02-15T07:08:21;14.00;50.50
67870;DHT22;54673;52.262;6.830;2023-02-15T07:10:49;14.10;50.60
67870;DHT22;54673;52.262;6.830;2023-02-15T07:13:14;14.00;50.50
67870;DHT22;54673;52.262;6.830;2023-02-15T07:15:40;14.00;51.30
67870;DHT22;54673;52.262;6.830;2023-02-15T07:18:06;14.00;50.40
67870;DHT22;54673;52.262;6.830;2023-02-15T07:20:31;14.00;50.50
67870;DHT22;54673;52.262;6.830;2023-02-15T07:22:59;14.00;50.40
67870;DHT22;54673;52.262;6.830;2023-02-15T07:25:25;14.00;50.50
67870;DHT22;54673;52.262;6.830;2023-02-15T07:27:58;14.00;50.50
67870;DHT22;54673;52.262;6.830;2023-02-15T07:30:24;14.00;50.40
67870;DHT22;54673;52.262;6.830;2023-02-15T07:32:49;14.00;50.60
67870;DHT22;54673;52.262;6.830;2023-02-15T07:35:34;14.00;50.50
67870;DHT22;54673;52.262;6.830;2023-02-15T07:38:00;14.00;50.50
67870;DHT22;54673;52.262;6.830;2023-02-15T07:40:26;14.00;50.40
67870;DHT22;54673;52.262;6.830;2023-02-15T07:42:52;14.00;50.60
67870;DHT22;54673;52.262;6.830;2023-02-15T07:45:20;14.00;50.50
67870;DHT22;54673;52.262;6.830;2023-02-15T07:47:46;14.00;50.50
67870;DHT22;54673;52.262;6.830;2023-02-15T07:50:11;14.00;50.60
67870;DHT22;54673;52.262;6.830;2023-02-15T07:52:37;13.90;50.60
67870;DHT22;54673;52.262;6.830;2023-02-15T07:55:02;14.00;50.70
67870;DHT22;54673;52.262;6.830;2023-02-15T07:57:29;14.00;50.70
67870;DHT22;54673;52.262;6.830;2023-02-15T07:59:54;14.00;50.90
67870;DHT22;54673;52.262;6.830;2023-02-15T08:02:20;13.90;50.80
67870;DHT22;54673;52.262;6.830;2023-02-15T08:04:45;13.90;50.90
67870;DHT22;54673;52.262;6.830;2023-02-15T08:07:11;13.90;51.00
67870;DHT22;54673;52.262;6.830;2023-02-15T08:09:36;13.90;51.10
67870;DHT22;54673;52.262;6.830;2023-02-15T08:12:02;13.90;51.10
67870;DHT22;54673;52.262;6.830;2023-02-15T08:14:28;13.80;51.10
67870;DHT22;54673;52.262;6.830;2023-02-15T08:16:55;13.90;51.20
67870;DHT22;54673;52.262;6.830;2023-02-15T08:19:22;13.90;51.20
67870;DHT22;54673;52.262;6.830;2023-02-15T08:21:50;13.90;51.30
67870;DHT22;54673;52.262;6.830;2023-02-15T08:24:19;13.90;51.40
67870;DHT22;54673;52.262;6.830;2023-02-15T08:26:46;13.90;51.40
67870;DHT22;54673;52.262;6.830;2023-02-15T08:29:14;13.90;51.40
67870;DHT22;54673;52.262;6.830;2023-02-15T08:31:39;13.90;51.40
67870;DHT22;54673;52.262;6.830;2023-02-15T08:34:07;13.90;51.60
67870;DHT22;54673;52.262;6.830;2023-02-15T08:36:33;13.90;51.60
67870;DHT22;54673;52.262;6.830;2023-02-15T08:39:00;13.90;51.70
67870;DHT22;54673;52.262;6.830;2023-02-15T08:41:36;13.90;51.70
67870;DHT22;54673;52.262;6.830;2023-02-15T08:44:05;13.90;51.70
67870;DHT22;54673;52.262;6.830;2023-02-15T08:46:33;14.00;51.80
67870;DHT22;54673;52.262;6.830;2023-02-15T08:48:59;13.90;51.70
67870;DHT22;54673;52.262;6.830;2023-02-15T08:51:28;13.90;51.80
67870;DHT22;54673;52.262;6.830;2023-02-15T08:53:55;13.90;51.90
67870;DHT22;54673;52.262;6.830;2023-02-15T08:56:26;14.00;51.90
67870;DHT22;54673;52.262;6.830;2023-02-15T08:58:53;14.00;51.90
67870;DHT22;54673;52.262;6.830;2023-02-15T09:01:21;14.00;52.10
67870;DHT22;54673;52.262;6.830;2023-02-15T09:03:48;14.00;52.00
67870;DHT22;54673;52.262;6.830;2023-02-15T09:06:16;14.00;52.10
67870;DHT22;54673;52.262;6.830;2023-02-15T09:08:42;14.00;52.10
67870;DHT22;54673;52.262;6.830;2023-02-15T09:11:13;14.00;52.10
67870;DHT22;54673;52.262;6.830;2023-02-15T09:13:42;14.00;52.10
67870;DHT22;54673;52.262;6.830;2023-02-15T09:16:09;14.00;52.10
67870;DHT22;54673;52.262;6.830;2023-02-15T09:18:38;14.00;52.10
67870;DHT22;54673;52.262;6.830;2023-02-15T09:21:14;14.00;52.20
67870;DHT22;54673;52.262;6.830;2023-02-15T09:23:41;14.00;52.20
67870;DHT22;54673;52.262;6.830;2023-02-15T09:26:10;14.00;52.20
67870;DHT22;54673;52.262;6.830;2023-02-15T09:28:36;14.00;52.20
67870;DHT22;54673;52.262;6.830;2023-02-15T09:31:20;14.00;52.20
67870;DHT22;54673;52.262;6.830;2023-02-15T09:33:47;14.10;52.50
67870;DHT22;54673;52.262;6.830;2023-02-15T09:36:28;14.10;52.40
67870;DHT22;54673;52.262;6.830;2023-02-15T09:38:59;14.10;52.50
67870;DHT22;54673;52.262;6.830;2023-02-15T09:52:57;14.10;53.20
67870;DHT22;54673;52.262;6.830;2023-02-15T09:56:09;14.20;53.40
67870;DHT22;54673;52.262;6.830;2023-02-15T10:06:38;14.30;53.80
67870;DHT22;54673;52.262;6.830;2023-02-15T10:15:24;14.40;53.80
67870;DHT22;54673;52.262;6.830;2023-02-15T10:18:06;14.40;53.70
67870;DHT22;54673;52.262;6.830;2023-02-15T10:20:52;14.40;53.70
67870;DHT22;54673;52.262;6.830;2023-02-15T10:26:20;14.40;53.70
67870;DHT22;54673;52.262;6.830;2023-02-15T10:28:51;14.50;53.80
67870;DHT22;54673;52.262;6.830;2023-02-15T10:50:57;14.70;54.00
67870;DHT22;54673;52.262;6.830;2023-02-15T10:56:24;14.70;53.80
67870;DHT22;54673;52.262;6.830;2023-02-15T11:01:43;14.70;53.80
67870;DHT22;54673;52.262;6.830;2023-02-15T11:07:02;14.80;53.80
67870;DHT22;54673;52.262;6.830;2023-02-15T11:09:38;14.80;53.90
67870;DHT22;54673;52.262;6.830;2023-02-15T11:12:11;14.80;53.80
67870;DHT22;54673;52.262;6.830;2023-02-15T11:15:29;14.80;53.90
67870;DHT22;54673;52.262;6.830;2023-02-15T11:17:39;14.80;53.80
67870;DHT22;54673;52.262;6.830;2023-02-15T11:20:29;14.80;53.70
67870;DHT22;54673;52.262;6.830;2023-02-15T11:22:56;14.90;53.70
67870;DHT22;54673;52.262;6.830;2023-02-15T11:26:04;14.90;54.00
67870;DHT22;54673;52.262;6.830;2023-02-15T11:28:38;14.90;54.00
67870;DHT22;54673;52.262;6.830;2023-02-15T11:31:43;15.00;54.00
67870;DHT22;54673;52.262;6.830;2023-02-15T11:34:20;15.00;54.90
67870;DHT22;54673;52.262;6.830;2023-02-15T11:36:48;15.00;53.90
67870;DHT22;54673;52.262;6.830;2023-02-15T11:39:17;15.00;53.90
67870;DHT22;54673;52.262;6.830;2023-02-15T11:41:49;15.00;53.80
67870;DHT22;54673;52.262;6.830;2023-02-15T11:44:34;15.00;53.80
67870;DHT22;54673;52.262;6.830;2023-02-15T11:47:00;15.00;53.80
67870;DHT22;54673;52.262;6.830;2023-02-15T11:49:32;15.10;53.90
67870;DHT22;54673;52.262;6.830;2023-02-15T11:52:00;15.10;53.80
67870;DHT22;54673;52.262;6.830;2023-02-15T11:54:29;15.10;53.90
67870;DHT22;54673;52.262;6.830;2023-02-15T11:56:59;15.10;53.90
67870;DHT22;54673;52.262;6.830;2023-02-15T11:59:32;15.20;53.90
67870;DHT22;54673;52.262;6.830;2023-02-15T12:02:00;15.20;53.90
67870;DHT22;54673;52.262;6.830;2023-02-15T12:04:39;15.10;53.80
67870;DHT22;54673;52.262;6.830;2023-02-15T12:07:23;15.20;54.00
67870;DHT22;54673;52.262;6.830;2023-02-15T12:10:00;15.20;54.10
67870;DHT22;54673;52.262;6.830;2023-02-15T12:12:31;15.20;54.20
67870;DHT22;54673;52.262;6.830;2023-02-15T12:15:00;15.20;54.30
67870;DHT22;54673;52.262;6.830;2023-02-15T12:17:29;15.20;54.20
67870;DHT22;54673;52.262;6.830;2023-02-15T12:20:04;15.20;54.20
67870;DHT22;54673;52.262;6.830;2023-02-15T12:22:33;15.20;54.20
67870;DHT22;54673;52.262;6.830;2023-02-15T12:25:01;15.30;54.10
67870;DHT22;54673;52.262;6.830;2023-02-15T12:27:29;15.30;54.40
67870;DHT22;54673;52.262;6.830;2023-02-15T12:29:59;15.30;54.30
67870;DHT22;54673;52.262;6.830;2023-02-15T12:32:30;15.30;54.30
67870;DHT22;54673;52.262;6.830;2023-02-15T12:35:13;15.30;54.70
67870;DHT22;54673;52.262;6.830;2023-02-15T12:37:56;15.30;54.90
67870;DHT22;54673;52.262;6.830;2023-02-15T12:40:25;15.30;55.90
67870;DHT22;54673;52.262;6.830;2023-02-15T12:42:54;15.30;55.10
67870;DHT22;54673;52.262;6.830;2023-02-15T12:45:26;15.20;55.10
67870;DHT22;54673;52.262;6.830;2023-02-15T12:50:37;15.20;55.00
67870;DHT22;54673;52.262;6.830;2023-02-15T12:53:13;15.20;54.80
67870;DHT22;54673;52.262;6.830;2023-02-15T12:55:40;15.10;54.70
67870;DHT22;54673;52.262;6.830;2023-02-15T12:58:17;15.20;54.60
67870;DHT22;54673;52.262;6.830;2023-02-15T13:00:44;15.20;54.40
67870;DHT22;54673;52.262;6.830;2023-02-15T13:03:19;15.10;54.30
67870;DHT22;54673;52.262;6.830;2023-02-15T13:05:50;15.10;55.10
67870;DHT22;54673;52.262;6.830;2023-02-15T13:08:31;15.10;54.20
67870;DHT22;54673;52.262;6.830;2023-02-15T13:11:02;15.20;54.20
67870;DHT22;54673;52.262;6.830;2023-02-15T13:13:31;15.10;54.10
67870;DHT22;54673;52.262;6.830;2023-02-15T13:16:04;15.20;54.20
67870;DHT22;54673;52.262;6.830;2023-02-15T13:18:42;15.10;54.20
67870;DHT22;54673;52.262;6.830;2023-02-15T13:21:15;15.10;54.20
67870;DHT22;54673;52.262;6.830;2023-02-15T13:23:48;15.10;54.20
67870;DHT22;54673;52.262;6.830;2023-02-15T13:26:20;15.20;55.10
67870;DHT22;54673;52.262;6.830;2023-02-15T13:28:51;15.10;54.10
67870;DHT22;54673;52.262;6.830;2023-02-15T13:31:20;15.10;54.10
67870;DHT22;54673;52.262;6.830;2023-02-15T13:33:56;15.10;54.10
67870;DHT22;54673;52.262;6.830;2023-02-15T13:39:36;15.10;54.10
67870;DHT22;54673;52.262;6.830;2023-02-15T13:50:17;15.20;54.20
67870;DHT22;54673;52.262;6.830;2023-02-15T13:52:56;15.20;54.30
67870;DHT22;54673;52.262;6.830;2023-02-15T14:01:09;15.20;54.20
67870;DHT22;54673;52.262;6.830;2023-02-15T14:07:25;15.20;54.30
67870;DHT22;54673;52.262;6.830;2023-02-15T14:10:12;15.20;54.30
67870;DHT22;54673;52.262;6.830;2023-02-15T14:15:53;15.20;54.70
67870;DHT22;54673;52.262;6.830;2023-02-15T14:18:46;15.30;54.90
67870;DHT22;54673;52.262;6.830;2023-02-15T14:21:21;15.20;55.20
67870;DHT22;54673;52.262;6.830;2023-02-15T14:24:13;15.20;55.40
67870;DHT22;54673;52.262;6.830;2023-02-15T14:31:43;15.30;55.90
67870;DHT22;54673;52.262;6.830;2023-02-15T14:37:03;15.40;56.10
67870;DHT22;54673;52.262;6.830;2023-02-15T14:40:06;15.40;56.20
67870;DHT22;54673;52.262;6.830;2023-02-15T14:43:01;15.40;56.20
67870;DHT22;54673;52.262;6.830;2023-02-15T14:48:30;15.40;56.20
67870;DHT22;54673;52.262;6.830;2023-02-15T14:50:57;15.40;55.80
67870;DHT22;54673;52.262;6.830;2023-02-15T14:58:37;15.60;56.00
67870;DHT22;54673;52.262;6.830;2023-02-15T15:01:10;15.50;55.50
67870;DHT22;54673;52.262;6.830;2023-02-15T15:03:36;15.50;55.40
67870;DHT22;54673;52.262;6.830;2023-02-15T15:06:24;15.50;55.30
67870;DHT22;54673;52.262;6.830;2023-02-15T15:08:51;15.50;55.20
67870;DHT22;54673;52.262;6.830;2023-02-15T15:14:03;15.50;55.00
67870;DHT22;54673;52.262;6.830;2023-02-15T15:19:10;15.50;55.00
67870;DHT22;54673;52.262;6.830;2023-02-15T15:22:03;15.50;54.90
67870;DHT22;54673;52.262;6.830;2023-02-15T15:36:16;15.40;54.60
67870;DHT22;54673;52.262;6.830;2023-02-15T15:39:12;15.40;54.60
67870;DHT22;54673;52.262;6.830;2023-02-15T15:42:10;15.40;54.60
67870;DHT22;54673;52.262;6.830;2023-02-15T15:50:15;15.40;54.50
67870;DHT22;54673;52.262;6.830;2023-02-15T15:52:46;15.40;54.60
67870;DHT22;54673;52.262;6.830;2023-02-15T15:55:19;15.40;54.50
67870;DHT22;54673;52.262;6.830;2023-02-15T15:57:50;15.40;54.40
67870;DHT22;54673;52.262;6.830;2023-02-15T16:02:56;15.40;54.50
67870;DHT22;54673;52.262;6.830;2023-02-15T16:05:22;15.40;54.40
67870;DHT22;54673;52.262;6.830;2023-02-15T16:07:49;15.30;54.40
67870;DHT22;54673;52.262;6.830;2023-02-15T16:10:29;15.30;54.30
67870;DHT22;54673;52.262;6.830;2023-02-15T16:12:57;15.30;54.30
67870;DHT22;54673;52.262;6.830;2023-02-15T16:15:26;15.30;54.30
67870;DHT22;54673;52.262;6.830;2023-02-15T16:17:57;15.30;54.30
67870;DHT22;54673;52.262;6.830;2023-02-15T16:20:31;15.30;54.30
67870;DHT22;54673;52.262;6.830;2023-02-15T16:28:51;14.80;54.10
67870;DHT22;54673;52.262;6.830;2023-02-15T16:31:18;15.30;54.30
67870;DHT22;54673;52.262;6.830;2023-02-15T16:33:44;15.20;54.40
67870;DHT22;54673;52.262;6.830;2023-02-15T16:36:25;15.30;54.60
67870;DHT22;54673;52.262;6.830;2023-02-15T16:41:25;15.30;54.50
67870;DHT22;54673;52.262;6.830;2023-02-15T16:43:53;15.30;54.50
67870;DHT22;54673;52.262;6.830;2023-02-15T16:46:30;15.30;54.50
67870;DHT22;54673;52.262;6.830;2023-02-15T16:49:00;15.30;54.50
67870;DHT22;54673;52.262;6.830;2023-02-15T16:51:29;15.30;55.40
67870;DHT22;54673;52.262;6.830;2023-02-15T16:53:57;15.30;54.50
67870;DHT22;54673;52.262;6.830;2023-02-15T16:56:29;15.20;54.50
67870;DHT22;54673;52.262;6.830;2023-02-15T16:58:58;15.20;54.40
67870;DHT22;54673;52.262;6.830;2023-02-15T17:01:28;15.20;54.50
67870;DHT22;54673;52.262;6.830;2023-02-15T17:04:33;15.20;54.50
67870;DHT22;54673;52.262;6.830;2023-02-15T17:07:05;15.30;54.50
67870;DHT22;54673;52.262;6.830;2023-02-15T17:09:31;15.20;54.50
67870;DHT22;54673;52.262;6.830;2023-02-15T17:11:57;15.20;54.40
67870;DHT22;54673;52.262;6.830;2023-02-15T17:14:31;15.20;54.50
67870;DHT22;54673;52.262;6.830;2023-02-15T17:17:07;15.20;54.50
67870;DHT22;54673;52.262;6.830;2023-02-15T17:19:50;15.20;54.40
67870;DHT22;54673;52.262;6.830;2023-02-15T17:22:22;15.20;54.40
67870;DHT22;54673;52.262;6.830;2023-02-15T17:24:50;15.20;54.40
67870;DHT22;54673;52.262;6.830;2023-02-15T17:27:25;15.20;54.40
67870;DHT22;54673;52.262;6.830;2023-02-15T17:29:58;15.20;54.40
67870;DHT22;54673;52.262;6.830;2023-02-15T17:32:26;15.20;54.40
67870;DHT22;54673;52.262;6.830;2023-02-15T17:35:25;15.20;54.50
67870;DHT22;54673;52.262;6.830;2023-02-15T17:38:04;15.10;54.40
67870;DHT22;54673;52.262;6.830;2023-02-15T17:40:33;15.20;54.50
67870;DHT22;54673;52.262;6.830;2023-02-15T17:42:59;15.20;54.60
67870;DHT22;54673;52.262;6.830;2023-02-15T17:45:30;15.20;54.50
67870;DHT22;54673;52.262;6.830;2023-02-15T17:47:57;15.20;54.50
67870;DHT22;54673;52.262;6.830;2023-02-15T17:50:26;15.20;54.40
67870;DHT22;54673;52.262;6.830;2023-02-15T17:52:54;15.20;54.50
67870;DHT22;54673;52.262;6.830;2023-02-15T17:55:22;15.20;54.50
67870;DHT22;54673;52.262;6.830;2023-02-15T17:58:01;15.20;54.40
67870;DHT22;54673;52.262;6.830;2023-02-15T18:00:29;15.10;54.40
67870;DHT22;54673;52.262;6.830;2023-02-15T18:03:13;15.10;54.40
67870;DHT22;54673;52.262;6.830;2023-02-15T18:05:58;15.20;54.50
67870;DHT22;54673;52.262;6.830;2023-02-15T18:08:42;15.20;54.60
67870;DHT22;54673;52.262;6.830;2023-02-15T18:11:27;15.10;54.40
67870;DHT22;54673;52.262;6.830;2023-02-15T18:14:00;15.10;54.40
67870;DHT22;54673;52.262;6.830;2023-02-15T18:16:31;15.10;54.40
67870;DHT22;54673;52.262;6.830;2023-02-15T18:18:57;15.10;54.40
67870;DHT22;54673;52.262;6.830;2023-02-15T18:21:23;15.10;54.50
67870;DHT22;54673;52.262;6.830;2023-02-15T18:23:49;15.10;54.70
67870;DHT22;54673;52.262;6.830;2023-02-15T18:26:19;15.20;54.70